createdAt,value
2022-08-20T00:00:14.850Z,20.79
2022-08-20T00:02:43.172Z,20.92
2022-08-20T00:05:09.773Z,20.74
2022-08-20T00:07:36.309Z,20.82
2022-08-20T00:10:02.937Z,20.96
2022-08-20T00:12:29.641Z,20.83
2022-08-20T00:14:56.303Z,20.83
2022-08-20T00:17:22.798Z,20.72
2022-08-20T00:19:49.261Z,20.79
2022-08-20T00:22:15.781Z,20.69
2022-08-20T00:24:42.675Z,20.70
2022-08-20T00:27:09.131Z,20.68
2022-08-20T00:29:35.612Z,20.68
2022-08-20T00:32:02.107Z,20.74
2022-08-20T00:34:28.579Z,20.76
2022-08-20T00:36:55.017Z,20.66
2022-08-20T00:39:21.540Z,20.78
2022-08-20T00:41:47.995Z,20.83
2022-08-20T00:44:18.839Z,20.77
2022-08-20T00:46:45.871Z,20.85
2022-08-20T00:49:16.659Z,20.53
2022-08-20T00:51:45.302Z,20.55
2022-08-20T00:54:11.808Z,20.74
2022-08-20T00:56:38.994Z,20.66
2022-08-20T00:59:11.404Z,20.64
2022-08-20T01:01:55.420Z,20.60
2022-08-20T01:04:23.058Z,20.58
2022-08-20T01:06:49.529Z,20.53
2022-08-20T01:09:15.984Z,20.46
2022-08-20T01:11:42.500Z,20.39
2022-08-20T01:14:30.810Z,20.46
2022-08-20T01:17:00.267Z,20.47
2022-08-20T01:19:31.777Z,20.39
2022-08-20T01:22:00.022Z,20.39
2022-08-20T01:24:26.498Z,20.49
2022-08-20T01:26:54.479Z,20.41
2022-08-20T01:29:26.121Z,20.40
2022-08-20T01:31:52.812Z,20.37
2022-08-20T01:34:20.351Z,20.34
2022-08-20T01:36:49.371Z,20.43
2022-08-20T01:39:19.328Z,20.30
2022-08-20T01:41:48.859Z,20.38
2022-08-20T01:44:18.389Z,20.37
2022-08-20T01:46:46.736Z,20.46
2022-08-20T01:49:22.888Z,20.30
2022-08-20T01:51:50.810Z,20.32
2022-08-20T01:54:17.474Z,20.36
2022-08-20T01:57:02.298Z,20.42
2022-08-20T01:59:29.411Z,20.33
2022-08-20T02:01:57.217Z,20.19
2022-08-20T02:04:23.754Z,20.18
2022-08-20T02:06:57.289Z,20.26
2022-08-20T02:09:29.516Z,20.23
2022-08-20T02:11:57.662Z,20.18
2022-08-20T02:14:24.493Z,20.15
2022-08-20T02:16:54.775Z,20.27
2022-08-20T02:19:29.933Z,20.07
2022-08-20T02:21:58.719Z,20.10
2022-08-20T02:24:25.416Z,20.21
2022-08-20T02:26:52.401Z,20.18
2022-08-20T02:29:18.985Z,20.03
2022-08-20T02:32:24.254Z,20.22
2022-08-20T02:34:34.821Z,20.30
2022-08-20T02:37:02.434Z,20.26
2022-08-20T02:39:29.078Z,20.23
2022-08-20T02:41:55.538Z,20.30
2022-08-20T02:44:22.020Z,20.31
2022-08-20T02:46:50.098Z,20.37
2022-08-20T02:49:17.790Z,20.36
2022-08-20T02:51:44.950Z,20.42
2022-08-20T02:54:12.318Z,20.42
2022-08-20T02:56:38.851Z,20.34
2022-08-20T02:59:07.895Z,20.43
2022-08-20T03:01:34.408Z,20.45
2022-08-20T03:04:00.967Z,20.45
2022-08-20T03:06:27.497Z,20.15
2022-08-20T03:08:54.434Z,20.35
2022-08-20T03:11:20.937Z,20.44
2022-08-20T03:13:47.754Z,20.43
2022-08-20T03:16:14.402Z,20.41
2022-08-20T03:18:42.367Z,20.28
2022-08-20T03:21:09.869Z,20.40
2022-08-20T03:23:38.092Z,20.41
2022-08-20T03:26:08.102Z,20.28
2022-08-20T03:28:34.641Z,20.04
2022-08-20T03:31:01.435Z,20.23
2022-08-20T03:33:28.383Z,20.25
2022-08-20T03:35:54.928Z,20.21
2022-08-20T03:38:32.886Z,19.97
2022-08-20T03:41:00.832Z,19.85
2022-08-20T03:43:27.380Z,20.07
2022-08-20T03:45:53.828Z,20.05
2022-08-20T03:48:20.935Z,19.88
2022-08-20T03:50:48.413Z,19.83
2022-08-20T03:53:15.696Z,20.09
2022-08-20T03:55:43.075Z,20.24
2022-08-20T03:58:13.520Z,20.13
2022-08-20T04:00:40.420Z,20.17
2022-08-20T04:03:09.356Z,19.87
2022-08-20T04:05:40.306Z,20.03
2022-08-20T04:08:08.581Z,20.01
2022-08-20T04:10:35.544Z,20.25
2022-08-20T04:13:02.041Z,20.19
2022-08-20T04:15:28.598Z,20.05
2022-08-20T04:17:55.180Z,20.13
2022-08-20T04:20:24.172Z,19.81
2022-08-20T04:22:58.867Z,19.72
2022-08-20T04:25:28.512Z,19.80
2022-08-20T04:27:56.728Z,19.94
2022-08-20T04:30:23.764Z,19.97
2022-08-20T04:32:50.302Z,20.09
2022-08-20T04:35:20.684Z,20.14
2022-08-20T04:37:47.814Z,20.07
2022-08-20T04:40:35.908Z,20.15
2022-08-20T04:43:04.823Z,20.30
2022-08-20T04:45:31.933Z,20.46
2022-08-20T04:48:05.646Z,20.40
2022-08-20T04:50:35.390Z,20.49
2022-08-20T04:53:03.332Z,20.52
2022-08-20T04:55:31.088Z,20.44
2022-08-20T04:58:08.253Z,20.37
2022-08-20T05:00:34.820Z,20.45
2022-08-20T05:03:01.406Z,20.55
2022-08-20T05:05:28.196Z,20.67
2022-08-20T05:07:55.558Z,20.67
2022-08-20T05:10:23.681Z,20.86
2022-08-20T05:12:56.686Z,20.97
2022-08-20T05:15:26.529Z,20.75
2022-08-20T05:18:00.877Z,20.95
2022-08-20T05:20:32.293Z,21.18
2022-08-20T05:22:59.918Z,21.69
2022-08-20T05:25:29.439Z,22.80
2022-08-20T05:27:57.083Z,23.24
2022-08-20T05:30:23.672Z,23.46
2022-08-20T05:32:50.977Z,23.75
2022-08-20T05:35:17.444Z,23.19
2022-08-20T05:37:45.945Z,22.31
2022-08-20T05:40:14.551Z,22.31
2022-08-20T05:42:41.144Z,22.05
2022-08-20T05:45:10.955Z,22.11
2022-08-20T05:47:42.859Z,21.48
2022-08-20T05:50:10.795Z,21.89
2022-08-20T05:52:46.582Z,22.04
2022-08-20T05:55:13.370Z,21.99
2022-08-20T05:57:40.249Z,21.63
2022-08-20T06:00:12.558Z,21.90
2022-08-20T06:02:57.665Z,21.96
2022-08-20T06:05:24.395Z,22.36
2022-08-20T06:07:50.966Z,23.39
2022-08-20T06:10:21.412Z,24.78
2022-08-20T06:12:47.883Z,26.05
2022-08-20T06:15:14.351Z,27.01
2022-08-20T06:17:41.219Z,28.78
2022-08-20T06:20:09.311Z,29.53
2022-08-20T06:22:36.321Z,29.37
2022-08-20T06:25:03.193Z,30.66
2022-08-20T06:27:29.733Z,32.16
2022-08-20T06:29:56.202Z,30.57
2022-08-20T06:32:31.746Z,28.34
2022-08-20T06:35:01.977Z,27.39
2022-08-20T06:37:31.746Z,26.94
2022-08-20T06:40:03.722Z,25.01
2022-08-20T06:42:30.306Z,25.62
2022-08-20T06:44:59.582Z,25.44
2022-08-20T06:47:26.064Z,25.95
2022-08-20T06:49:52.504Z,26.00
2022-08-20T06:52:19.021Z,25.25
2022-08-20T06:54:45.894Z,24.86
2022-08-20T06:57:12.890Z,24.64
2022-08-20T06:59:39.369Z,25.30
2022-08-20T07:02:05.920Z,24.96
2022-08-20T07:04:32.458Z,24.88
2022-08-20T07:06:59.485Z,24.51
2022-08-20T07:09:26.796Z,24.39
2022-08-20T07:11:53.281Z,24.16
2022-08-20T07:14:20.179Z,24.36
2022-08-20T07:16:47.275Z,24.07
2022-08-20T07:19:14.493Z,24.03
2022-08-20T07:21:41.104Z,23.81
2022-08-20T07:24:09.642Z,23.66
2022-08-20T07:26:36.368Z,23.28
2022-08-20T07:29:03.249Z,23.37
2022-08-20T07:31:48.267Z,23.29
2022-08-20T07:34:16.235Z,23.16
2022-08-20T07:36:43.979Z,23.07
2022-08-20T07:39:10.550Z,22.93
2022-08-20T07:41:37.579Z,22.83
2022-08-20T07:44:04.777Z,22.75
2022-08-20T07:46:31.635Z,22.63
2022-08-20T07:48:58.846Z,22.55
2022-08-20T07:51:25.292Z,22.50
2022-08-20T07:53:51.957Z,22.14
2022-08-20T07:56:20.595Z,21.87
2022-08-20T07:58:50.024Z,21.52
2022-08-20T08:01:18.495Z,21.18
2022-08-20T08:03:49.783Z,20.80
2022-08-20T08:06:29.966Z,20.84
2022-08-20T08:09:05.277Z,20.71
2022-08-20T08:11:33.329Z,20.61
2022-08-20T08:14:00.111Z,20.25
2022-08-20T08:16:27.892Z,20.10
2022-08-20T08:18:56.667Z,19.83
2022-08-20T08:21:23.712Z,19.74
2022-08-20T08:23:50.278Z,19.77
2022-08-20T08:26:19.120Z,19.75
2022-08-20T08:28:46.394Z,19.72
2022-08-20T08:31:13.271Z,19.72
2022-08-20T08:33:40.913Z,19.58
2022-08-20T08:36:09.845Z,19.20
2022-08-20T08:38:38.044Z,19.16
2022-08-20T08:41:14.549Z,19.17
2022-08-20T08:43:41.174Z,19.19
2022-08-20T08:46:11.018Z,19.39
2022-08-20T08:48:39.169Z,19.36
2022-08-20T08:51:11.958Z,19.37
2022-08-20T08:53:44.819Z,19.34
2022-08-20T08:56:12.013Z,19.16
2022-08-20T08:58:38.568Z,19.34
2022-08-20T09:01:54.324Z,19.23
2022-08-20T09:04:02.855Z,19.25
2022-08-20T09:06:29.317Z,19.26
2022-08-20T09:08:57.608Z,19.35
2022-08-20T09:11:24.993Z,19.33
2022-08-20T09:13:54.206Z,19.33
2022-08-20T09:16:22.688Z,19.34
2022-08-20T09:18:49.593Z,19.16
2022-08-20T09:21:16.184Z,19.05
2022-08-20T09:23:43.106Z,19.11
2022-08-20T09:26:09.853Z,19.05
2022-08-20T09:28:37.169Z,18.98
2022-08-20T09:31:04.481Z,19.07
2022-08-20T09:33:32.937Z,19.19
2022-08-20T09:35:59.474Z,19.14
2022-08-20T09:38:26.031Z,19.08
2022-08-20T09:40:52.506Z,19.10
2022-08-20T09:43:18.974Z,18.98
2022-08-20T09:45:45.455Z,18.92
2022-08-20T09:48:11.980Z,18.79
2022-08-20T09:50:44.051Z,18.59
2022-08-20T09:53:10.916Z,18.58
2022-08-20T09:55:39.369Z,18.68
2022-08-20T09:58:28.911Z,18.57
2022-08-20T10:00:55.426Z,18.67
2022-08-20T10:03:21.898Z,18.62
2022-08-20T10:05:48.353Z,18.80
2022-08-20T10:08:14.853Z,19.31
2022-08-20T10:10:41.621Z,19.73
2022-08-20T10:13:08.416Z,20.15
2022-08-20T10:15:39.265Z,20.40
2022-08-20T10:18:09.491Z,20.57
2022-08-20T10:20:38.869Z,20.83
2022-08-20T10:23:05.438Z,20.81
2022-08-20T10:25:31.893Z,20.99
2022-08-20T10:27:59.389Z,20.68
2022-08-20T10:30:26.574Z,21.00
2022-08-20T10:32:53.040Z,20.81
2022-08-20T10:35:19.955Z,20.98
2022-08-20T10:37:46.488Z,20.96
2022-08-20T10:40:15.533Z,20.89
2022-08-20T10:42:43.502Z,20.92
2022-08-20T10:45:14.329Z,20.94
2022-08-20T10:47:40.993Z,20.94
2022-08-20T10:50:09.045Z,20.76
2022-08-20T10:52:35.726Z,20.76
2022-08-20T10:55:04.321Z,20.78
2022-08-20T10:57:31.363Z,21.11
2022-08-20T10:59:58.901Z,20.85
2022-08-20T11:02:26.269Z,21.09
2022-08-20T11:04:53.340Z,21.51
2022-08-20T11:07:56.284Z,21.79
2022-08-20T11:10:17.287Z,22.34
2022-08-20T11:12:44.714Z,23.04
2022-08-20T11:15:12.803Z,23.15
2022-08-20T11:17:40.755Z,23.18
2022-08-20T11:20:08.040Z,22.96
2022-08-20T11:22:34.831Z,22.71
2022-08-20T11:25:01.473Z,23.06
2022-08-20T11:27:32.274Z,22.89
2022-08-20T11:29:58.861Z,22.74
2022-08-20T11:32:25.436Z,22.62
2022-08-20T11:34:52.259Z,23.54
2022-08-20T11:37:20.344Z,23.35
2022-08-20T11:39:46.944Z,23.35
2022-08-20T11:42:13.519Z,23.30
2022-08-20T11:44:40.024Z,23.58
2022-08-20T11:47:07.193Z,23.13
2022-08-20T11:49:35.697Z,23.58
2022-08-20T11:52:02.517Z,23.82
2022-08-20T11:54:30.302Z,24.09
2022-08-20T11:56:57.998Z,23.78
2022-08-20T11:59:25.338Z,23.86
2022-08-20T12:02:03.315Z,23.43
2022-08-20T12:04:30.283Z,23.65
2022-08-20T12:07:07.980Z,23.31
2022-08-20T12:09:34.418Z,23.57
2022-08-20T12:12:00.895Z,23.44
2022-08-20T12:14:27.389Z,23.40
2022-08-20T12:16:53.868Z,23.00
2022-08-20T12:19:20.341Z,23.04
2022-08-20T12:21:46.932Z,22.88
2022-08-20T12:24:13.477Z,22.76
2022-08-20T12:26:40.082Z,22.90
2022-08-20T12:29:06.581Z,22.79
2022-08-20T12:31:33.080Z,22.70
2022-08-20T12:33:59.591Z,22.67
2022-08-20T12:36:26.075Z,22.46
2022-08-20T12:38:52.662Z,22.94
2022-08-20T12:41:19.129Z,22.76
2022-08-20T12:43:45.564Z,22.40
2022-08-20T12:46:12.771Z,22.40
2022-08-20T12:48:39.236Z,22.63
2022-08-20T12:51:05.780Z,22.83
2022-08-20T12:53:32.218Z,22.36
2022-08-20T12:56:02.544Z,22.59
2022-08-20T12:58:28.998Z,22.27
2022-08-20T13:00:55.588Z,22.44
2022-08-20T13:03:22.049Z,22.34
2022-08-20T13:05:49.394Z,22.22
2022-08-20T13:08:17.735Z,22.35
2022-08-20T13:10:46.034Z,22.59
2022-08-20T13:13:13.649Z,22.48
2022-08-20T13:15:40.621Z,22.47
2022-08-20T13:18:07.560Z,22.92
2022-08-20T13:20:36.596Z,22.45
2022-08-20T13:23:04.583Z,22.57
2022-08-20T13:25:31.188Z,22.85
2022-08-20T13:28:02.311Z,22.90
2022-08-20T13:30:28.940Z,22.65
2022-08-20T13:32:55.596Z,22.36
2022-08-20T13:35:22.577Z,22.77
2022-08-20T13:37:49.910Z,22.63
2022-08-20T13:40:17.171Z,22.64
2022-08-20T13:42:43.706Z,22.87
2022-08-20T13:45:10.616Z,22.79
2022-08-20T13:47:37.815Z,23.13
2022-08-20T13:50:05.400Z,22.65
2022-08-20T13:52:32.772Z,22.77
2022-08-20T13:54:59.271Z,23.03
2022-08-20T13:57:26.030Z,23.27
2022-08-20T13:59:54.861Z,22.84
2022-08-20T14:02:22.023Z,22.82
2022-08-20T14:04:48.724Z,23.24
2022-08-20T14:07:17.740Z,23.14
2022-08-20T14:09:45.558Z,23.34
2022-08-20T14:12:13.334Z,23.03
2022-08-20T14:14:40.160Z,23.15
2022-08-20T14:17:20.708Z,23.25
2022-08-20T14:19:49.170Z,23.00
2022-08-20T14:22:17.813Z,23.35
2022-08-20T14:24:46.880Z,23.45
2022-08-20T14:27:14.032Z,23.49
2022-08-20T14:29:42.028Z,23.17
2022-08-20T14:32:09.319Z,23.57
2022-08-20T14:34:36.396Z,23.44
2022-08-20T14:37:14.262Z,23.56
2022-08-20T14:39:41.311Z,23.67
2022-08-20T14:42:07.954Z,23.40
2022-08-20T14:44:34.746Z,23.78
2022-08-20T14:47:16.066Z,23.59
2022-08-20T14:49:43.481Z,23.28
2022-08-20T14:52:10.441Z,23.60
2022-08-20T14:54:37.593Z,23.57
2022-08-20T14:57:04.618Z,23.79
2022-08-20T14:59:39.369Z,23.95
2022-08-20T15:02:07.219Z,23.96
2022-08-20T15:04:34.472Z,23.89
2022-08-20T15:07:10.939Z,23.49
2022-08-20T15:09:39.520Z,23.93
2022-08-20T15:12:06.357Z,24.00
2022-08-20T15:14:32.842Z,24.33
2022-08-20T15:17:00.073Z,23.99
2022-08-20T15:19:26.541Z,23.88
2022-08-20T15:21:53.009Z,23.34
2022-08-20T15:24:19.735Z,23.34
2022-08-20T15:26:46.463Z,23.33
2022-08-20T15:29:18.392Z,23.17
2022-08-20T15:31:49.610Z,23.37
2022-08-20T15:34:18.066Z,23.29
2022-08-20T15:36:45.001Z,23.12
2022-08-20T15:39:11.454Z,22.65
2022-08-20T15:41:38.096Z,22.75
2022-08-20T15:44:04.672Z,23.15
2022-08-20T15:46:37.548Z,22.95
2022-08-20T15:49:08.272Z,23.44
2022-08-20T15:51:39.098Z,23.00
2022-08-20T15:54:05.569Z,23.40
2022-08-20T15:56:32.017Z,23.35
2022-08-20T15:59:13.746Z,23.26
2022-08-20T16:01:43.219Z,23.23
2022-08-20T16:04:18.877Z,22.76
2022-08-20T16:06:47.666Z,22.58
2022-08-20T16:09:14.143Z,23.08
2022-08-20T16:11:43.636Z,22.60
2022-08-20T16:14:15.919Z,22.64
2022-08-20T16:16:48.700Z,22.79
2022-08-20T16:19:18.441Z,22.42
2022-08-20T16:21:46.178Z,22.46
2022-08-20T16:24:13.941Z,22.70
2022-08-20T16:26:57.841Z,22.84
2022-08-20T16:29:37.850Z,23.01
2022-08-20T16:32:10.244Z,22.82
2022-08-20T16:34:40.439Z,23.00
2022-08-20T16:37:16.272Z,22.44
2022-08-20T16:39:48.610Z,22.63
2022-08-20T16:42:18.539Z,22.52
2022-08-20T16:44:47.381Z,22.72
2022-08-20T16:47:14.410Z,22.44
2022-08-20T16:49:45.583Z,22.68
2022-08-20T16:52:12.050Z,22.70
2022-08-20T16:54:42.322Z,22.73
2022-08-20T16:57:09.621Z,22.70
2022-08-20T16:59:57.556Z,22.48
2022-08-20T17:02:24.654Z,22.37
2022-08-20T17:04:59.479Z,22.46
2022-08-20T17:07:47.062Z,22.52
2022-08-20T17:10:24.858Z,22.52
2022-08-20T17:12:52.418Z,22.40
2022-08-20T17:15:21.262Z,22.45
2022-08-20T17:17:47.793Z,22.20
2022-08-20T17:20:19.957Z,22.14
2022-08-20T17:23:08.181Z,22.25
2022-08-20T17:25:38.196Z,22.15
2022-08-20T17:28:18.710Z,22.02
2022-08-20T17:30:45.797Z,21.78
2022-08-20T17:33:21.112Z,21.84
2022-08-20T17:35:55.474Z,21.81
2022-08-20T17:38:38.019Z,21.75
2022-08-20T17:41:11.837Z,21.43
2022-08-20T17:43:43.880Z,21.47
2022-08-20T17:46:11.840Z,21.32
2022-08-20T17:48:42.922Z,21.21
2022-08-20T17:51:32.658Z,21.12
2022-08-20T17:54:03.357Z,20.91
2022-08-20T17:56:32.972Z,20.93
2022-08-20T17:59:05.729Z,20.79
2022-08-20T18:01:33.240Z,20.75
2022-08-20T18:03:59.717Z,20.72
2022-08-20T18:06:30.330Z,20.64
2022-08-20T18:09:02.429Z,20.58
2022-08-20T18:11:31.678Z,20.53
2022-08-20T18:14:07.426Z,20.35
2022-08-20T18:16:43.144Z,20.31
2022-08-20T18:19:31.489Z,20.20
2022-08-20T18:22:07.159Z,20.19
2022-08-20T18:24:39.489Z,20.10
2022-08-20T18:27:10.022Z,20.17
2022-08-20T18:29:38.263Z,20.11
2022-08-20T18:32:07.256Z,20.10
2022-08-20T18:34:37.056Z,20.17
2022-08-20T18:37:06.456Z,20.17
2022-08-20T18:39:34.799Z,20.16
2022-08-20T18:42:19.903Z,20.13
2022-08-20T18:44:47.666Z,20.04
2022-08-20T18:47:21.973Z,19.96
2022-08-20T18:49:59.532Z,20.05
2022-08-20T18:52:28.044Z,20.07
2022-08-20T18:55:01.089Z,19.96
2022-08-20T18:57:41.363Z,19.99
2022-08-20T19:00:12.352Z,19.93
2022-08-20T19:02:53.206Z,19.92
2022-08-20T19:05:26.308Z,19.79
2022-08-20T19:07:54.045Z,19.87
2022-08-20T19:10:39.265Z,19.87
2022-08-20T19:13:36.643Z,19.93
2022-08-20T19:16:06.015Z,19.89
2022-08-20T19:18:47.480Z,19.80
2022-08-20T19:21:16.698Z,19.60
2022-08-20T19:23:47.675Z,19.57
2022-08-20T19:26:25.247Z,19.61
2022-08-20T19:29:20.099Z,19.67
2022-08-20T19:31:47.069Z,19.71
2022-08-20T19:34:20.259Z,19.64
2022-08-20T19:37:28.111Z,19.59
2022-08-20T19:39:55.760Z,19.51
2022-08-20T19:42:28.188Z,19.42
2022-08-20T19:44:57.765Z,19.36
2022-08-20T19:47:32.211Z,19.42
2022-08-20T19:50:15.037Z,19.37
2022-08-20T19:52:47.541Z,19.55
2022-08-20T19:55:31.019Z,19.52
2022-08-20T19:58:00.433Z,19.59
2022-08-20T20:00:31.495Z,19.62
2022-08-20T20:03:08.068Z,19.59
2022-08-20T20:05:34.651Z,19.65
2022-08-20T20:08:03.424Z,19.59
2022-08-20T20:10:33.598Z,19.62
2022-08-20T20:13:26.462Z,19.65
2022-08-20T20:15:59.487Z,19.72
2022-08-20T20:18:29.432Z,19.88
2022-08-20T20:21:08.869Z,19.91
2022-08-20T20:23:45.743Z,19.82
2022-08-20T20:26:16.568Z,19.96
2022-08-20T20:28:50.530Z,19.98
2022-08-20T20:31:43.193Z,19.91
2022-08-20T20:34:11.657Z,19.94
2022-08-20T20:36:41.176Z,20.13
2022-08-20T20:39:14.304Z,20.08
2022-08-20T20:41:50.721Z,20.26
2022-08-20T20:44:19.670Z,20.14
2022-08-20T20:46:48.004Z,20.25
2022-08-20T20:49:34.324Z,20.30
2022-08-20T20:52:02.984Z,20.33
2022-08-20T20:54:35.953Z,20.34
2022-08-20T20:57:04.418Z,20.36
2022-08-20T20:59:31.606Z,20.46
2022-08-20T21:01:58.187Z,20.35
2022-08-20T21:04:25.323Z,20.43
2022-08-20T21:06:52.861Z,20.61
2022-08-20T21:09:20.150Z,20.48
2022-08-20T21:11:46.624Z,20.46
2022-08-20T21:14:13.861Z,20.55
2022-08-20T21:16:40.521Z,20.42
2022-08-20T21:19:08.151Z,20.36
2022-08-20T21:21:34.777Z,20.44
2022-08-20T21:24:01.275Z,20.51
2022-08-20T21:26:28.299Z,20.62
2022-08-20T21:28:57.245Z,20.63
2022-08-20T21:31:30.366Z,20.59
2022-08-20T21:33:56.926Z,20.66
2022-08-20T21:36:23.451Z,20.62
2022-08-20T21:38:49.929Z,20.54
2022-08-20T21:41:16.376Z,20.68
2022-08-20T21:43:45.578Z,20.57
2022-08-20T21:46:16.396Z,20.68
2022-08-20T21:48:54.293Z,20.46
2022-08-20T21:51:20.770Z,20.35
2022-08-20T21:53:50.091Z,20.37
2022-08-20T21:56:16.804Z,20.49
2022-08-20T21:58:44.598Z,20.40
2022-08-20T22:01:12.134Z,20.39
2022-08-20T22:03:41.050Z,20.37
2022-08-20T22:06:09.413Z,20.31
2022-08-20T22:08:35.888Z,20.33
2022-08-20T22:11:02.813Z,20.43
2022-08-20T22:13:31.765Z,20.35
2022-08-20T22:15:59.426Z,20.41
2022-08-20T22:18:26.018Z,20.37
2022-08-20T22:20:52.511Z,20.36
2022-08-20T22:23:19.202Z,20.16
2022-08-20T22:25:45.672Z,20.17
2022-08-20T22:28:12.172Z,20.15
2022-08-20T22:30:42.209Z,20.14
2022-08-20T22:33:10.869Z,20.15
2022-08-20T22:35:37.703Z,20.15
2022-08-20T22:38:07.247Z,20.09
2022-08-20T22:40:33.716Z,20.03
2022-08-20T22:43:00.213Z,20.19
2022-08-20T22:45:26.690Z,20.24
2022-08-20T22:47:53.275Z,20.09
2022-08-20T22:50:22.602Z,20.03
2022-08-20T22:52:49.060Z,20.01
2022-08-20T22:55:15.822Z,20.07
2022-08-20T22:57:42.326Z,20.15
2022-08-20T23:00:12.079Z,20.12
2022-08-20T23:02:39.424Z,19.97
2022-08-20T23:05:06.031Z,20.06
2022-08-20T23:07:33.626Z,19.99
2022-08-20T23:10:00.152Z,19.92
2022-08-20T23:12:26.666Z,19.72
2022-08-20T23:14:53.195Z,19.80
2022-08-20T23:17:19.946Z,19.67
2022-08-20T23:19:47.639Z,19.73
2022-08-20T23:22:14.139Z,19.74
2022-08-20T23:24:40.710Z,19.82
2022-08-20T23:27:07.866Z,19.65
2022-08-20T23:29:34.555Z,19.75
2022-08-20T23:32:01.052Z,19.87
2022-08-20T23:34:27.760Z,19.67
2022-08-20T23:36:55.680Z,19.66
2022-08-20T23:39:22.189Z,19.63
2022-08-20T23:41:48.753Z,19.55
2022-08-20T23:44:26.359Z,19.79
2022-08-20T23:46:58.272Z,19.60
2022-08-20T23:49:25.568Z,19.64
2022-08-20T23:51:52.140Z,19.72
2022-08-20T23:54:18.661Z,19.71
2022-08-20T23:56:45.114Z,19.68
2022-08-20T23:59:11.578Z,19.52
